Airfield :
LOGIN :

Register | Disclaimer

   EN    FR    IT 

 










Legend :    VFR   Marginal VFR   IFR   Intensive IFR   Very Intensive IFR
Visi :
Ceiling :
>= 8 km
>= 3000ft
5 to 8 km
1000 to 3000 ft
1500m to 5 km
500 to 1000 ft
800 to 1500m
200 to 500 ft
< 800m
< 200 ft
Symbols :   Thunderstorms  Fog  Heavy snow  Heavy precipitations  Wind > 20 kt
SIGMETs :     Misc.  Thunderstorms  Icing  Turbulence  Mountain Waves  Volcanic Ashes







- Airport Elevation : 194 ft
- IATA code : IEG


EPZG - Zielona Gora Babimost

CURRENT METAR :
  • 210230Z 22003KT CAVOK 16/14 Q1013

EXPIRED METARs :
  • 210200Z 23002KT CAVOK 16/13 Q1014
  • 210130Z 24003KT CAVOK 16/13 Q1014
  • 210100Z 21001KT CAVOK 16/13 Q1014
  • 210030Z 27001KT CAVOK 16/13 Q1014
  • 210000Z 00000KT CAVOK 16/13 Q1015

TAF TAF EPZG
Valid from the 21 at 03:00 until the 21 at 12:00 UTC


210230Z 2103/2112 VRB02KT CAVOK
BECMG 2107/2109 24012KT
TEMPO 2110/2112 27018G38KT SCT050CB
No reported NOTAMs for that airfield.



MET'MAP, your aeronautical weather chart ! - Copyright ORBIFLY December 2007 - Disclaimer

ORBIFLY MET'MAP TEAM :

Programming & Development : Alexandra Zaïnal
Concept & Development : Baudouin d'Aumeries
Co-Development & Prog : Marc-Olivier Méhu
Technical & hardware support : Manuel Goepfert

Contact : metmap@orbifly.com




SOURCES & CREDITS :

   NOAA